sensor_id;sensor_type;location;lat;lon;timestamp;pressure;altitude;pressure_sealevel;temperature;humidity
50484;BME280;36409;52.168;20.878;2022-07-29T00:00:51;101017.44;;;13.04;64.00
50484;BME280;36409;52.168;20.878;2022-07-29T00:03:19;101018.33;;;13.02;64.00
50484;BME280;36409;52.168;20.878;2022-07-29T00:05:51;101026.19;;;13.02;62.96
50484;BME280;36409;52.168;20.878;2022-07-29T00:08:21;101023.56;;;13.03;63.39
50484;BME280;36409;52.168;20.878;2022-07-29T00:10:51;101019.20;;;13.02;63.62
50484;BME280;36409;52.168;20.878;2022-07-29T00:13:20;101024.55;;;12.94;63.54
50484;BME280;36409;52.168;20.878;2022-07-29T00:16:00;101025.53;;;12.87;64.16
50484;BME280;36409;52.168;20.878;2022-07-29T00:18:32;101025.59;;;12.81;63.52
50484;BME280;36409;52.168;20.878;2022-07-29T00:21:01;101023.89;;;12.78;64.11
50484;BME280;36409;52.168;20.878;2022-07-29T00:23:30;101028.31;;;12.75;63.62
50484;BME280;36409;52.168;20.878;2022-07-29T00:26:04;101024.86;;;12.70;64.03
50484;BME280;36409;52.168;20.878;2022-07-29T00:28:33;101036.25;;;12.67;64.18
50484;BME280;36409;52.168;20.878;2022-07-29T00:31:02;101029.28;;;12.66;64.50
50484;BME280;36409;52.168;20.878;2022-07-29T00:33:31;101031.02;;;12.67;64.60
50484;BME280;36409;52.168;20.878;2022-07-29T00:36:00;101033.63;;;12.67;64.21
50484;BME280;36409;52.168;20.878;2022-07-29T00:38:28;101029.28;;;12.66;63.96
50484;BME280;36409;52.168;20.878;2022-07-29T00:40:57;101026.66;;;12.66;64.98
50484;BME280;36409;52.168;20.878;2022-07-29T00:43:26;101017.06;;;12.66;64.63
50484;BME280;36409;52.168;20.878;2022-07-29T00:45:55;101018.80;;;12.66;65.32
50484;BME280;36409;52.168;20.878;2022-07-29T00:48:24;101008.30;;;12.67;65.56
50484;BME280;36409;52.168;20.878;2022-07-29T00:50:52;101017.01;;;12.71;64.81
50484;BME280;36409;52.168;20.878;2022-07-29T00:53:21;101006.47;;;12.76;65.27
50484;BME280;36409;52.168;20.878;2022-07-29T00:55:51;101010.00;;;12.72;64.67
50484;BME280;36409;52.168;20.878;2022-07-29T00:58:23;101010.91;;;12.67;65.01
50484;BME280;36409;52.168;20.878;2022-07-29T01:00:52;101012.72;;;12.64;65.36
50484;BME280;36409;52.168;20.878;2022-07-29T01:03:21;101015.39;;;12.61;65.19
50484;BME280;36409;52.168;20.878;2022-07-29T01:05:51;101012.80;;;12.58;65.79
50484;BME280;36409;52.168;20.878;2022-07-29T01:08:20;101023.28;;;12.56;65.76
50484;BME280;36409;52.168;20.878;2022-07-29T01:10:51;101011.09;;;12.55;65.43
50484;BME280;36409;52.168;20.878;2022-07-29T01:13:22;101019.83;;;12.53;65.65
50484;BME280;36409;52.168;20.878;2022-07-29T01:16:03;101025.95;;;12.51;66.12
50484;BME280;36409;52.168;20.878;2022-07-29T01:18:39;101019.83;;;12.53;65.87
50484;BME280;36409;52.168;20.878;2022-07-29T01:24:30;101014.53;;;12.57;65.99
50484;BME280;36409;52.168;20.878;2022-07-29T01:27:06;101010.19;;;12.58;66.24
50484;BME280;36409;52.168;20.878;2022-07-29T01:29:46;101011.04;;;12.60;66.60
50484;BME280;36409;52.168;20.878;2022-07-29T01:32:26;101010.95;;;12.66;65.74
50484;BME280;36409;52.168;20.878;2022-07-29T01:35:00;101008.23;;;12.72;66.29
50484;BME280;36409;52.168;20.878;2022-07-29T01:37:32;101012.53;;;12.78;66.53
50484;BME280;36409;52.168;20.878;2022-07-29T01:40:03;101020.35;;;12.81;66.87
50484;BME280;36409;52.168;20.878;2022-07-29T01:42:36;101023.77;;;12.88;66.32
50484;BME280;36409;52.168;20.878;2022-07-29T01:45:12;101020.16;;;12.95;66.64
50484;BME280;36409;52.168;20.878;2022-07-29T01:47:46;101019.17;;;13.04;66.42
50484;BME280;36409;52.168;20.878;2022-07-29T01:50:21;101020.03;;;13.06;66.66
50484;BME280;36409;52.168;20.878;2022-07-29T01:52:56;101018.22;;;13.09;66.23
50484;BME280;36409;52.168;20.878;2022-07-29T01:55:31;101023.39;;;13.16;66.73
50484;BME280;36409;52.168;20.878;2022-07-29T01:58:02;101018.93;;;13.22;66.51
50484;BME280;36409;52.168;20.878;2022-07-29T02:00:33;101014.47;;;13.27;66.56
50484;BME280;36409;52.168;20.878;2022-07-29T02:03:07;101021.38;;;13.33;66.99
50484;BME280;36409;52.168;20.878;2022-07-29T02:05:38;101019.56;;;13.38;67.30
50484;BME280;36409;52.168;20.878;2022-07-29T02:08:10;101026.50;;;13.42;66.38
50484;BME280;36409;52.168;20.878;2022-07-29T02:10:40;101023.80;;;13.47;66.28
50484;BME280;36409;52.168;20.878;2022-07-29T02:13:11;101018.52;;;13.50;66.25
50484;BME280;36409;52.168;20.878;2022-07-29T02:15:42;101021.95;;;13.54;65.91
50484;BME280;36409;52.168;20.878;2022-07-29T02:18:15;101018.44;;;13.55;66.30
50484;BME280;36409;52.168;20.878;2022-07-29T02:20:48;101019.33;;;13.55;66.99
50484;BME280;36409;52.168;20.878;2022-07-29T02:23:22;101022.77;;;13.57;66.46
50484;BME280;36409;52.168;20.878;2022-07-29T02:25:55;101021.88;;;13.58;66.28
50484;BME280;36409;52.168;20.878;2022-07-29T02:28:30;101023.65;;;13.58;66.27
50484;BME280;36409;52.168;20.878;2022-07-29T02:31:01;101014.97;;;13.54;66.45
50484;BME280;36409;52.168;20.878;2022-07-29T02:33:32;101017.59;;;13.54;66.23
50484;BME280;36409;52.168;20.878;2022-07-29T02:36:02;101023.69;;;13.56;66.17
50484;BME280;36409;52.168;20.878;2022-07-29T02:38:32;101021.88;;;13.58;66.75
50484;BME280;36409;52.168;20.878;2022-07-29T02:41:22;101028.85;;;13.61;67.01
50484;BME280;36409;52.168;20.878;2022-07-29T02:44:01;101027.97;;;13.62;66.91
50484;BME280;36409;52.168;20.878;2022-07-29T02:46:34;101030.52;;;13.65;67.48
50484;BME280;36409;52.168;20.878;2022-07-29T02:49:10;101027.89;;;13.65;67.23
50484;BME280;36409;52.168;20.878;2022-07-29T02:51:45;101030.52;;;13.65;66.84
50484;BME280;36409;52.168;20.878;2022-07-29T02:54:23;101028.78;;;13.64;66.48
50484;BME280;36409;52.168;20.878;2022-07-29T02:56:58;101031.44;;;13.63;67.14
50484;BME280;36409;52.168;20.878;2022-07-29T02:59:29;101030.59;;;13.62;67.26
50484;BME280;36409;52.168;20.878;2022-07-29T03:02:00;101022.72;;;13.62;67.05
50484;BME280;36409;52.168;20.878;2022-07-29T03:04:31;101024.42;;;13.63;67.47
50484;BME280;36409;52.168;20.878;2022-07-29T03:07:01;101028.77;;;13.66;67.28
50484;BME280;36409;52.168;20.878;2022-07-29T03:09:30;101018.24;;;13.67;66.89
50484;BME280;36409;52.168;20.878;2022-07-29T03:12:01;101014.69;;;13.70;67.20
50484;BME280;36409;52.168;20.878;2022-07-29T03:14:30;101015.53;;;13.73;66.78
50484;BME280;36409;52.168;20.878;2022-07-29T03:17:00;101025.10;;;13.76;68.08
50484;BME280;36409;52.168;20.878;2022-07-29T03:19:30;101025.02;;;13.79;67.95
50484;BME280;36409;52.168;20.878;2022-07-29T03:21:59;101022.36;;;13.82;67.86
50484;BME280;36409;52.168;20.878;2022-07-29T03:24:33;101022.31;;;13.85;67.45
50484;BME280;36409;52.168;20.878;2022-07-29T03:27:03;101021.42;;;13.86;68.33
50484;BME280;36409;52.168;20.878;2022-07-29T03:29:32;101024.00;;;13.89;67.60
50484;BME280;36409;52.168;20.878;2022-07-29T03:32:05;101028.33;;;13.90;67.67
50484;BME280;36409;52.168;20.878;2022-07-29T03:34:37;101024.81;;;13.92;67.68
50484;BME280;36409;52.168;20.878;2022-07-29T03:37:06;101023.03;;;13.95;67.40
50484;BME280;36409;52.168;20.878;2022-07-29T03:39:40;101026.47;;;13.97;68.03
50484;BME280;36409;52.168;20.878;2022-07-29T03:42:13;101022.09;;;13.98;67.93
50484;BME280;36409;52.168;20.878;2022-07-29T03:44:48;101023.80;;;14.00;68.33
50484;BME280;36409;52.168;20.878;2022-07-29T03:47:22;101029.84;;;14.04;68.72
50484;BME280;36409;52.168;20.878;2022-07-29T03:50:13;101027.13;;;14.09;68.09
50484;BME280;36409;52.168;20.878;2022-07-29T03:52:43;101030.59;;;14.12;68.23
50484;BME280;36409;52.168;20.878;2022-07-29T03:55:14;101034.88;;;14.16;67.77
50484;BME280;36409;52.168;20.878;2022-07-29T03:57:44;101030.51;;;14.17;68.17
50484;BME280;36409;52.168;20.878;2022-07-29T04:00:14;101033.05;;;14.21;68.23
50484;BME280;36409;52.168;20.878;2022-07-29T04:02:44;101034.73;;;14.24;67.75
50484;BME280;36409;52.168;20.878;2022-07-29T04:05:17;101037.27;;;14.29;67.86
50484;BME280;36409;52.168;20.878;2022-07-29T04:07:47;101031.97;;;14.32;67.63
50484;BME280;36409;52.168;20.878;2022-07-29T04:10:18;101037.13;;;14.36;68.71
50484;BME280;36409;52.168;20.878;2022-07-29T04:13:00;101033.52;;;14.42;68.02
50484;BME280;36409;52.168;20.878;2022-07-29T04:15:34;101035.16;;;14.48;68.54
50484;BME280;36409;52.168;20.878;2022-07-29T04:18:04;101029.77;;;14.54;68.39
50484;BME280;36409;52.168;20.878;2022-07-29T04:20:34;101027.89;;;14.61;68.70
50484;BME280;36409;52.168;20.878;2022-07-29T04:23:03;101027.77;;;14.69;68.14
50484;BME280;36409;52.168;20.878;2022-07-29T04:25:37;101026.73;;;14.76;68.85
50484;BME280;36409;52.168;20.878;2022-07-29T04:28:07;101032.66;;;14.86;68.49
50484;BME280;36409;52.168;20.878;2022-07-29T04:30:36;101031.61;;;14.94;68.62
50484;BME280;36409;52.168;20.878;2022-07-29T04:33:06;101028.77;;;15.04;68.67
50484;BME280;36409;52.168;20.878;2022-07-29T04:35:37;101032.02;;;15.15;68.79
50484;BME280;36409;52.168;20.878;2022-07-29T04:38:18;101022.17;;;15.25;67.95
50484;BME280;36409;52.168;20.878;2022-07-29T04:40:47;101031.52;;;15.37;68.42
50484;BME280;36409;52.168;20.878;2022-07-29T04:43:18;101023.41;;;15.46;68.33
50484;BME280;36409;52.168;20.878;2022-07-29T04:45:50;101036.33;;;15.55;68.44
50484;BME280;36409;52.168;20.878;2022-07-29T04:48:19;101038.77;;;15.65;68.59
50484;BME280;36409;52.168;20.878;2022-07-29T04:50:56;101044.63;;;15.76;68.23
50484;BME280;36409;52.168;20.878;2022-07-29T04:53:25;101047.90;;;15.86;68.30
50484;BME280;36409;52.168;20.878;2022-07-29T04:55:54;101048.48;;;15.97;68.22
50484;BME280;36409;52.168;20.878;2022-07-29T04:58:22;101042.97;;;16.06;68.10
50484;BME280;36409;52.168;20.878;2022-07-29T05:00:51;101047.97;;;16.17;68.01
50484;BME280;36409;52.168;20.878;2022-07-29T05:03:20;101057.41;;;16.26;67.57
50484;BME280;36409;52.168;20.878;2022-07-29T05:05:49;101049.24;;;16.35;68.26
50484;BME280;36409;52.168;20.878;2022-07-29T05:08:20;101047.31;;;16.42;67.94
50484;BME280;36409;52.168;20.878;2022-07-29T05:10:50;101052.34;;;16.50;67.37
50484;BME280;36409;52.168;20.878;2022-07-29T05:13:18;101062.64;;;16.59;67.40
50484;BME280;36409;52.168;20.878;2022-07-29T05:15:47;101057.18;;;16.65;67.10
50484;BME280;36409;52.168;20.878;2022-07-29T05:18:17;101064.81;;;16.75;67.69
50484;BME280;36409;52.168;20.878;2022-07-29T05:20:46;101068.77;;;16.90;67.46
50484;BME280;36409;52.168;20.878;2022-07-29T05:23:17;101067.53;;;17.03;67.26
50484;BME280;36409;52.168;20.878;2022-07-29T05:25:45;101062.94;;;17.10;66.61
50484;BME280;36409;52.168;20.878;2022-07-29T05:28:15;101065.30;;;17.19;67.00
50484;BME280;36409;52.168;20.878;2022-07-29T05:30:44;101050.64;;;17.39;66.37
50484;BME280;36409;52.168;20.878;2022-07-29T05:33:16;101054.25;;;17.63;66.33
50484;BME280;36409;52.168;20.878;2022-07-29T05:36:05;101058.55;;;17.93;66.04
50484;BME280;36409;52.168;20.878;2022-07-29T05:38:35;101062.02;;;17.95;66.38
50484;BME280;36409;52.168;20.878;2022-07-29T05:41:04;101058.33;;;18.00;66.19
50484;BME280;36409;52.168;20.878;2022-07-29T05:43:33;101055.56;;;18.03;66.06
50484;BME280;36409;52.168;20.878;2022-07-29T05:46:02;101049.04;;;18.14;65.40
50484;BME280;36409;52.168;20.878;2022-07-29T05:48:31;101044.63;;;18.63;65.33
50484;BME280;36409;52.168;20.878;2022-07-29T05:51:00;101043.45;;;19.83;64.31
50484;BME280;36409;52.168;20.878;2022-07-29T05:53:29;101037.23;;;21.42;62.05
50484;BME280;36409;52.168;20.878;2022-07-29T05:55:57;101040.17;;;22.75;60.37
50484;BME280;36409;52.168;20.878;2022-07-29T05:58:26;101034.03;;;23.22;60.43
50484;BME280;36409;52.168;20.878;2022-07-29T06:00:56;101036.86;;;23.66;59.45
50484;BME280;36409;52.168;20.878;2022-07-29T06:03:27;101033.93;;;24.01;59.77
50484;BME280;36409;52.168;20.878;2022-07-29T06:05:56;101035.59;;;24.32;58.17
50484;BME280;36409;52.168;20.878;2022-07-29T06:08:24;101031.58;;;24.40;58.14
50484;BME280;36409;52.168;20.878;2022-07-29T06:10:53;101038.27;;;24.47;57.70
50484;BME280;36409;52.168;20.878;2022-07-29T06:13:23;101032.16;;;24.74;57.43
50484;BME280;36409;52.168;20.878;2022-07-29T06:15:51;101027.53;;;25.05;56.89
50484;BME280;36409;52.168;20.878;2022-07-29T06:18:21;101030.70;;;25.24;56.28
50484;BME280;36409;52.168;20.878;2022-07-29T06:20:51;101035.81;;;25.00;56.00
50484;BME280;36409;52.168;20.878;2022-07-29T06:23:21;101034.05;;;24.28;55.95
50484;BME280;36409;52.168;20.878;2022-07-29T06:25:51;101034.17;;;23.51;55.42
50484;BME280;36409;52.168;20.878;2022-07-29T06:28:19;101035.38;;;22.81;55.76
50484;BME280;36409;52.168;20.878;2022-07-29T06:30:50;101030.89;;;22.32;56.28
50484;BME280;36409;52.168;20.878;2022-07-29T06:33:19;101028.47;;;21.94;56.25
50484;BME280;36409;52.168;20.878;2022-07-29T06:35:48;101031.73;;;21.64;56.51
50484;BME280;36409;52.168;20.878;2022-07-29T06:38:22;101031.22;;;21.38;56.53
50484;BME280;36409;52.168;20.878;2022-07-29T06:41:01;101039.35;;;21.16;57.12
50484;BME280;36409;52.168;20.878;2022-07-29T06:43:33;101041.66;;;21.05;57.25
50484;BME280;36409;52.168;20.878;2022-07-29T06:46:20;101040.46;;;20.93;57.54
50484;BME280;36409;52.168;20.878;2022-07-29T06:48:51;101037.37;;;20.83;57.23
50484;BME280;36409;52.168;20.878;2022-07-29T06:51:21;101035.17;;;20.72;57.59
50484;BME280;36409;52.168;20.878;2022-07-29T06:53:52;101041.56;;;20.68;57.72
50484;BME280;36409;52.168;20.878;2022-07-29T06:56:28;101041.78;;;20.63;57.57
50484;BME280;36409;52.168;20.878;2022-07-29T06:58:57;101039.12;;;20.63;57.83
50484;BME280;36409;52.168;20.878;2022-07-29T07:01:29;101035.81;;;20.58;57.72
50484;BME280;36409;52.168;20.878;2022-07-29T07:03:58;101039.73;;;20.49;57.27
50484;BME280;36409;52.168;20.878;2022-07-29T07:06:27;101040.82;;;20.45;57.99
50484;BME280;36409;52.168;20.878;2022-07-29T07:08:55;101036.58;;;20.41;57.54
50484;BME280;36409;52.168;20.878;2022-07-29T07:11:24;101036.58;;;20.41;57.55
50484;BME280;36409;52.168;20.878;2022-07-29T07:13:53;101037.08;;;20.49;57.54
50484;BME280;36409;52.168;20.878;2022-07-29T07:16:28;101039.18;;;20.62;57.99
50484;BME280;36409;52.168;20.878;2022-07-29T07:18:57;101032.90;;;20.64;57.69
50484;BME280;36409;52.168;20.878;2022-07-29T07:21:26;101033.61;;;20.68;58.08
50484;BME280;36409;52.168;20.878;2022-07-29T07:23:58;101041.35;;;20.73;57.53
50484;BME280;36409;52.168;20.878;2022-07-29T07:26:27;101032.47;;;20.74;57.59
50484;BME280;36409;52.168;20.878;2022-07-29T07:28:56;101025.12;;;20.80;57.47
50484;BME280;36409;52.168;20.878;2022-07-29T07:31:25;101029.91;;;20.91;57.86
50484;BME280;36409;52.168;20.878;2022-07-29T07:33:55;101034.94;;;20.97;57.59
50484;BME280;36409;52.168;20.878;2022-07-29T07:36:24;101034.98;;;20.96;57.22
50484;BME280;36409;52.168;20.878;2022-07-29T07:38:53;101031.35;;;20.98;57.70
50484;BME280;36409;52.168;20.878;2022-07-29T07:41:22;101031.13;;;21.03;57.64
50484;BME280;36409;52.168;20.878;2022-07-29T07:43:51;101031.70;;;21.10;57.18
50484;BME280;36409;52.168;20.878;2022-07-29T07:46:20;101035.99;;;21.12;57.37
50484;BME280;36409;52.168;20.878;2022-07-29T07:48:50;101032.09;;;21.20;56.98
50484;BME280;36409;52.168;20.878;2022-07-29T07:51:20;101028.94;;;21.31;57.53
50484;BME280;36409;52.168;20.878;2022-07-29T07:53:50;101024.02;;;21.40;57.02
50484;BME280;36409;52.168;20.878;2022-07-29T07:56:19;101034.34;;;21.47;57.00
50484;BME280;36409;52.168;20.878;2022-07-29T07:58:50;101032.30;;;21.52;56.91
50484;BME280;36409;52.168;20.878;2022-07-29T08:01:19;101029.25;;;21.61;57.13
50484;BME280;36409;52.168;20.878;2022-07-29T08:03:51;101027.20;;;21.66;56.56
50484;BME280;36409;52.168;20.878;2022-07-29T08:06:20;101028.78;;;21.70;56.69
50484;BME280;36409;52.168;20.878;2022-07-29T08:08:49;101026.58;;;21.79;56.03
50484;BME280;36409;52.168;20.878;2022-07-29T08:11:20;101025.32;;;21.86;56.18
50484;BME280;36409;52.168;20.878;2022-07-29T08:13:50;101022.22;;;21.95;55.77
50484;BME280;36409;52.168;20.878;2022-07-29T08:16:19;101023.60;;;22.02;55.91
50484;BME280;36409;52.168;20.878;2022-07-29T08:18:48;101018.05;;;22.07;55.50
50484;BME280;36409;52.168;20.878;2022-07-29T08:21:18;101022.09;;;22.14;55.17
50484;BME280;36409;52.168;20.878;2022-07-29T08:23:47;101022.47;;;22.24;55.07
50484;BME280;36409;52.168;20.878;2022-07-29T08:26:29;101019.84;;;22.40;55.26
50484;BME280;36409;52.168;20.878;2022-07-29T08:28:58;101021.79;;;22.54;55.43
50484;BME280;36409;52.168;20.878;2022-07-29T08:31:27;101024.81;;;22.64;54.88
50484;BME280;36409;52.168;20.878;2022-07-29T08:33:58;101019.77;;;22.75;55.07
50484;BME280;36409;52.168;20.878;2022-07-29T08:36:28;101022.69;;;22.87;54.01
50484;BME280;36409;52.168;20.878;2022-07-29T08:38:58;101020.55;;;22.93;54.25
50484;BME280;36409;52.168;20.878;2022-07-29T08:41:27;101025.70;;;23.12;54.40
50484;BME280;36409;52.168;20.878;2022-07-29T08:43:57;101022.58;;;23.36;54.04
50484;BME280;36409;52.168;20.878;2022-07-29T08:46:26;101020.75;;;23.53;53.60
50484;BME280;36409;52.168;20.878;2022-07-29T08:48:56;101020.88;;;23.66;52.73
50484;BME280;36409;52.168;20.878;2022-07-29T08:51:26;101023.23;;;23.86;52.78
50484;BME280;36409;52.168;20.878;2022-07-29T08:53:56;101015.95;;;24.19;52.91
50484;BME280;36409;52.168;20.878;2022-07-29T08:56:26;101019.38;;;24.50;52.49
50484;BME280;36409;52.168;20.878;2022-07-29T08:58:58;101012.93;;;25.10;52.10
50484;BME280;36409;52.168;20.878;2022-07-29T09:01:34;101001.12;;;25.55;51.60
50484;BME280;36409;52.168;20.878;2022-07-29T09:04:12;100999.54;;;25.65;51.12
50484;BME280;36409;52.168;20.878;2022-07-29T09:06:48;101010.55;;;25.73;50.71
50484;BME280;36409;52.168;20.878;2022-07-29T09:09:19;101003.08;;;26.04;49.98
50484;BME280;36409;52.168;20.878;2022-07-29T09:11:51;101002.03;;;26.46;49.14
50484;BME280;36409;52.168;20.878;2022-07-29T09:14:21;101003.08;;;26.43;49.71
50484;BME280;36409;52.168;20.878;2022-07-29T09:16:52;101005.78;;;26.30;49.63
50484;BME280;36409;52.168;20.878;2022-07-29T09:19:27;101008.84;;;26.50;48.55
50484;BME280;36409;52.168;20.878;2022-07-29T09:21:58;101002.47;;;26.14;48.51
50484;BME280;36409;52.168;20.878;2022-07-29T09:24:41;101000.41;;;26.04;48.66
50484;BME280;36409;52.168;20.878;2022-07-29T09:27:19;101002.57;;;26.38;48.70
50484;BME280;36409;52.168;20.878;2022-07-29T09:29:56;100993.39;;;27.04;48.22
50484;BME280;36409;52.168;20.878;2022-07-29T09:32:27;100989.67;;;27.42;47.88
50484;BME280;36409;52.168;20.878;2022-07-29T09:35:17;100985.72;;;27.23;47.31
50484;BME280;36409;52.168;20.878;2022-07-29T09:37:48;100984.49;;;27.27;47.35
50484;BME280;36409;52.168;20.878;2022-07-29T09:40:20;100981.02;;;27.14;46.86
50484;BME280;36409;52.168;20.878;2022-07-29T09:42:51;100983.95;;;27.11;46.14
50484;BME280;36409;52.168;20.878;2022-07-29T09:45:29;100978.34;;;27.14;46.06
50484;BME280;36409;52.168;20.878;2022-07-29T09:47:59;100984.23;;;27.19;45.95
50484;BME280;36409;52.168;20.878;2022-07-29T09:50:39;100990.97;;;27.01;45.58
50484;BME280;36409;52.168;20.878;2022-07-29T09:53:09;100990.20;;;26.61;45.04
50484;BME280;36409;52.168;20.878;2022-07-29T09:55:49;100978.16;;;26.43;45.45
50484;BME280;36409;52.168;20.878;2022-07-29T09:58:21;100984.80;;;26.24;45.46
50484;BME280;36409;52.168;20.878;2022-07-29T10:00:52;100982.03;;;26.13;45.75
50484;BME280;36409;52.168;20.878;2022-07-29T10:03:23;100982.27;;;26.10;45.23
50484;BME280;36409;52.168;20.878;2022-07-29T10:06:08;100983.11;;;26.10;45.54
50484;BME280;36409;52.168;20.878;2022-07-29T10:08:38;100969.30;;;25.90;45.21
50484;BME280;36409;52.168;20.878;2022-07-29T10:11:11;100972.70;;;25.67;45.14
50484;BME280;36409;52.168;20.878;2022-07-29T10:13:41;100974.41;;;25.55;45.67
50484;BME280;36409;52.168;20.878;2022-07-29T10:16:10;100965.84;;;25.50;45.73
50484;BME280;36409;52.168;20.878;2022-07-29T10:18:42;100965.08;;;25.48;46.05
50484;BME280;36409;52.168;20.878;2022-07-29T10:21:12;100959.42;;;25.52;45.88
50484;BME280;36409;52.168;20.878;2022-07-29T10:24:02;100963.28;;;25.61;45.94
50484;BME280;36409;52.168;20.878;2022-07-29T10:26:32;100955.39;;;25.72;45.23
50484;BME280;36409;52.168;20.878;2022-07-29T10:29:01;100952.60;;;26.00;45.08
50484;BME280;36409;52.168;20.878;2022-07-29T10:31:39;100956.88;;;26.28;45.40
50484;BME280;36409;52.168;20.878;2022-07-29T10:34:16;100959.94;;;26.48;44.86
50484;BME280;36409;52.168;20.878;2022-07-29T10:36:56;100954.72;;;26.71;44.86
50484;BME280;36409;52.168;20.878;2022-07-29T10:39:43;100959.64;;;26.77;44.48
50484;BME280;36409;52.168;20.878;2022-07-29T10:42:21;100951.56;;;27.14;44.47
50484;BME280;36409;52.168;20.878;2022-07-29T10:45:02;100955.31;;;27.36;44.01
50484;BME280;36409;52.168;20.878;2022-07-29T10:47:32;100949.41;;;27.19;43.48
50484;BME280;36409;52.168;20.878;2022-07-29T10:50:04;100944.22;;;27.05;43.32
50484;BME280;36409;52.168;20.878;2022-07-29T10:52:53;100944.78;;;27.21;43.49
50484;BME280;36409;52.168;20.878;2022-07-29T10:55:33;100942.11;;;27.21;43.51
50484;BME280;36409;52.168;20.878;2022-07-29T10:58:18;100945.02;;;27.18;43.33
50484;BME280;36409;52.168;20.878;2022-07-29T11:00:50;100941.80;;;27.02;43.21
50484;BME280;36409;52.168;20.878;2022-07-29T11:03:47;100944.30;;;26.92;43.18
50484;BME280;36409;52.168;20.878;2022-07-29T11:06:21;100940.44;;;26.96;43.52
50484;BME280;36409;52.168;20.878;2022-07-29T11:09:18;100936.88;;;26.95;43.44
50484;BME280;36409;52.168;20.878;2022-07-29T11:12:03;100935.34;;;27.04;43.49
50484;BME280;36409;52.168;20.878;2022-07-29T11:14:57;100933.20;;;27.21;43.38
50484;BME280;36409;52.168;20.878;2022-07-29T11:17:28;100932.36;;;27.20;43.30
50484;BME280;36409;52.168;20.878;2022-07-29T11:20:35;100922.13;;;27.25;43.10
50484;BME280;36409;52.168;20.878;2022-07-29T11:23:23;100929.59;;;27.33;42.61
50484;BME280;36409;52.168;20.878;2022-07-29T11:26:14;100926.17;;;27.31;42.43
50484;BME280;36409;52.168;20.878;2022-07-29T11:28:57;100919.58;;;27.24;42.39
50484;BME280;36409;52.168;20.878;2022-07-29T11:31:37;100924.00;;;27.36;42.54
50484;BME280;36409;52.168;20.878;2022-07-29T11:34:24;100921.52;;;27.46;42.47
50484;BME280;36409;52.168;20.878;2022-07-29T11:37:18;100923.73;;;27.64;42.19
50484;BME280;36409;52.168;20.878;2022-07-29T11:40:16;100916.42;;;27.66;41.72
50484;BME280;36409;52.168;20.878;2022-07-29T11:42:48;100907.42;;;27.89;41.77
50484;BME280;36409;52.168;20.878;2022-07-29T11:45:24;100913.16;;;28.30;41.52
50484;BME280;36409;52.168;20.878;2022-07-29T11:48:19;100907.92;;;28.84;41.37
50484;BME280;36409;52.168;20.878;2022-07-29T11:51:00;100913.73;;;29.22;40.82
50484;BME280;36409;52.168;20.878;2022-07-29T11:53:39;100901.81;;;29.57;40.84
50484;BME280;36409;52.168;20.878;2022-07-29T11:56:09;100906.06;;;29.59;40.24
50484;BME280;36409;52.168;20.878;2022-07-29T11:58:45;100906.39;;;29.66;40.12
50484;BME280;36409;52.168;20.878;2022-07-29T12:01:17;100903.00;;;29.95;39.95
50484;BME280;36409;52.168;20.878;2022-07-29T12:03:47;100902.22;;;30.14;39.67
50484;BME280;36409;52.168;20.878;2022-07-29T12:06:16;100906.77;;;30.24;39.22
50484;BME280;36409;52.168;20.878;2022-07-29T12:08:49;100895.92;;;30.45;39.13
50484;BME280;36409;52.168;20.878;2022-07-29T12:11:19;100901.95;;;30.68;38.41
50484;BME280;36409;52.168;20.878;2022-07-29T12:13:52;100913.72;;;30.67;38.20
50484;BME280;36409;52.168;20.878;2022-07-29T12:16:21;100900.67;;;30.62;37.77
50484;BME280;36409;52.168;20.878;2022-07-29T12:18:58;100896.84;;;30.65;37.37
50484;BME280;36409;52.168;20.878;2022-07-29T12:21:27;100893.02;;;30.77;37.18
50484;BME280;36409;52.168;20.878;2022-07-29T12:23:57;100897.84;;;30.93;37.38
50484;BME280;36409;52.168;20.878;2022-07-29T12:26:50;100901.37;;;30.74;37.07
50484;BME280;36409;52.168;20.878;2022-07-29T12:29:19;100892.94;;;30.38;37.30
50484;BME280;36409;52.168;20.878;2022-07-29T12:32:04;100882.92;;;29.99;37.66
50484;BME280;36409;52.168;20.878;2022-07-29T12:34:42;100885.86;;;29.65;37.44
50484;BME280;36409;52.168;20.878;2022-07-29T12:37:12;100884.97;;;29.34;37.01
50484;BME280;36409;52.168;20.878;2022-07-29T12:39:41;100882.13;;;29.14;37.55
50484;BME280;36409;52.168;20.878;2022-07-29T12:42:15;100884.09;;;28.91;37.00
50484;BME280;36409;52.168;20.878;2022-07-29T12:44:47;100898.30;;;28.70;37.43
50484;BME280;36409;52.168;20.878;2022-07-29T12:47:19;100896.84;;;28.66;37.63
50484;BME280;36409;52.168;20.878;2022-07-29T12:49:50;100892.23;;;28.57;37.22
50484;BME280;36409;52.168;20.878;2022-07-29T12:52:29;100886.66;;;28.48;37.59
50484;BME280;36409;52.168;20.878;2022-07-29T12:54:59;100884.64;;;28.62;38.02
50484;BME280;36409;52.168;20.878;2022-07-29T12:57:28;100899.53;;;28.66;37.63
50484;BME280;36409;52.168;20.878;2022-07-29T13:00:02;100877.79;;;28.80;37.46
50484;BME280;36409;52.168;20.878;2022-07-29T13:02:32;100881.60;;;28.99;37.43
50484;BME280;36409;52.168;20.878;2022-07-29T13:05:02;100874.66;;;29.18;37.50
50484;BME280;36409;52.168;20.878;2022-07-29T13:07:32;100864.96;;;29.26;37.35
50484;BME280;36409;52.168;20.878;2022-07-29T13:10:23;100862.27;;;29.26;37.37
50484;BME280;36409;52.168;20.878;2022-07-29T13:13:03;100863.53;;;29.43;37.10